N1261P KIND-KIND
Flight info
| Callsign | N1261P |
|---|---|
| Flight time | N/A |
| Altitude | 1800 |
| Route | KIND ZZZZ |
| Aircraft | SF50/L-V/N |
Departure
| Time | 2026-05-05 22:59 |
|---|---|
| Airport | Indianapolis International Airport (KIND) |
Arrival
| Time | N/A |
|---|---|
| Airport | Indianapolis International Airport (KIND) |
| Time | Latitude | Longitude | Altitude | Speed | Heading |
|---|---|---|---|---|---|
| 2026-05-05 22:19 | 39.73062 | -86.27879 | 792 ft | 0 kts | 134° |
| 2026-05-05 22:44 | 39.73064 | -86.27874 | 792 ft | 3 kts | 355° |
| 2026-05-05 22:44 | 39.73092 | -86.27870 | 793 ft | 5 kts | 15° |
| 2026-05-05 22:45 | 39.73095 | -86.27869 | 793 ft | 0 kts | 15° |
| 2026-05-05 22:45 | 39.73147 | -86.27849 | 795 ft | 19 kts | 23° |
| 2026-05-05 22:45 | 39.73264 | -86.27733 | 798 ft | 16 kts | 33° |
| 2026-05-05 22:46 | 39.73343 | -86.27750 | 799 ft | 11 kts | 325° |
| 2026-05-05 22:46 | 39.73404 | -86.27821 | 799 ft | 11 kts | 316° |
| 2026-05-05 22:46 | 39.73357 | -86.27848 | 799 ft | 18 kts | 219° |
| 2026-05-05 22:46 | 39.73275 | -86.27946 | 795 ft | 16 kts | 224° |
| 2026-05-05 22:47 | 39.73183 | -86.28063 | 791 ft | 21 kts | 225° |
| 2026-05-05 22:47 | 39.73148 | -86.28205 | 787 ft | 19 kts | 304° |
| 2026-05-05 22:47 | 39.73249 | -86.28341 | 783 ft | 21 kts | 315° |
| 2026-05-05 22:47 | 39.73346 | -86.28469 | 783 ft | 19 kts | 316° |
| 2026-05-05 22:48 | 39.73435 | -86.28586 | 781 ft | 17 kts | 315° |
| 2026-05-05 22:48 | 39.73508 | -86.28693 | 783 ft | 15 kts | 281° |
| 2026-05-05 22:48 | 39.73475 | -86.28787 | 781 ft | 3 kts | 219° |
| 2026-05-05 22:48 | 39.73474 | -86.28788 | 781 ft | 0 kts | 218° |
| 2026-05-05 22:49 | 39.73469 | -86.28793 | 781 ft | 3 kts | 224° |
| 2026-05-05 22:49 | 39.73364 | -86.28933 | 782 ft | 29 kts | 225° |
| 2026-05-05 22:49 | 39.73234 | -86.29103 | 784 ft | 23 kts | 217° |
| 2026-05-05 22:49 | 39.73127 | -86.29233 | 782 ft | 20 kts | 225° |
| 2026-05-05 22:50 | 39.73044 | -86.29344 | 783 ft | 14 kts | 225° |
| 2026-05-05 22:50 | 39.72970 | -86.29436 | 781 ft | 15 kts | 224° |
| 2026-05-05 22:50 | 39.72896 | -86.29530 | 779 ft | 13 kts | 224° |
| 2026-05-05 22:50 | 39.72812 | -86.29637 | 779 ft | 21 kts | 232° |
| 2026-05-05 22:51 | 39.72799 | -86.29674 | 778 ft | 0 kts | 226° |
| 2026-05-05 22:51 | 39.72797 | -86.29676 | 778 ft | 4 kts | 208° |
| 2026-05-05 22:52 | 39.72708 | -86.29770 | 776 ft | 33 kts | 226° |
| 2026-05-05 22:52 | 39.72567 | -86.29955 | 778 ft | 25 kts | 219° |
| 2026-05-05 22:52 | 39.72455 | -86.30090 | 781 ft | 19 kts | 224° |
| 2026-05-05 22:52 | 39.72373 | -86.30196 | 782 ft | 15 kts | 225° |
| 2026-05-05 22:53 | 39.72307 | -86.30280 | 781 ft | 14 kts | 224° |
| 2026-05-05 22:53 | 39.72207 | -86.30409 | 782 ft | 28 kts | 225° |
| 2026-05-05 22:53 | 39.72055 | -86.30601 | 778 ft | 31 kts | 224° |
| 2026-05-05 22:53 | 39.71902 | -86.30800 | 778 ft | 31 kts | 226° |
| 2026-05-05 22:54 | 39.71750 | -86.30992 | 780 ft | 30 kts | 227° |
| 2026-05-05 22:54 | 39.71602 | -86.31175 | 783 ft | 30 kts | 226° |
| 2026-05-05 22:54 | 39.71469 | -86.31349 | 780 ft | 25 kts | 223° |
| 2026-05-05 22:54 | 39.71358 | -86.31494 | 777 ft | 21 kts | 226° |
| 2026-05-05 22:55 | 39.71267 | -86.31609 | 778 ft | 17 kts | 220° |
| 2026-05-05 22:55 | 39.71174 | -86.31727 | 778 ft | 23 kts | 226° |
| 2026-05-05 22:55 | 39.71036 | -86.31900 | 782 ft | 33 kts | 224° |
| 2026-05-05 22:55 | 39.70878 | -86.32100 | 783 ft | 14 kts | 225° |
| 2026-05-05 22:56 | 39.70813 | -86.32186 | 780 ft | 11 kts | 225° |
| 2026-05-05 22:56 | 39.70731 | -86.32174 | 781 ft | 18 kts | 138° |
| 2026-05-05 22:56 | 39.70668 | -86.32067 | 781 ft | 12 kts | 103° |
| 2026-05-05 22:56 | 39.70675 | -86.32038 | 781 ft | 0 kts | 43° |
| 2026-05-05 22:58 | 39.70681 | -86.32030 | 781 ft | 12 kts | 43° |
| 2026-05-05 22:58 | 39.70938 | -86.31702 | 783 ft | 91 kts | 41° |
| 2026-05-05 22:59 | 39.71496 | -86.30978 | 1013 ft | 129 kts | 42° |
| 2026-05-05 22:59 | 39.72150 | -86.30132 | 1568 ft | 151 kts | 43° |
| 2026-05-05 22:59 | 39.72878 | -86.29052 | 2395 ft | 169 kts | 45° |
| 2026-05-05 22:59 | 39.73643 | -86.27768 | 3204 ft | 182 kts | 51° |
| 2026-05-05 23:00 | 39.75534 | -86.24529 | 3536 ft | 234 kts | 50° |
| 2026-05-05 23:00 | 39.76542 | -86.22812 | 3547 ft | 259 kts | 50° |
| 2026-05-05 23:00 | 39.77581 | -86.21028 | 3421 ft | 230 kts | 50° |
| 2026-05-05 23:01 | 39.78508 | -86.19469 | 3396 ft | 210 kts | 49° |
| 2026-05-05 23:01 | 39.79365 | -86.17975 | 4337 ft | 196 kts | 54° |
| 2026-05-05 23:01 | 39.80214 | -86.16572 | 4886 ft | 207 kts | 51° |
| 2026-05-05 23:01 | 39.81178 | -86.15104 | 4890 ft | 231 kts | 48° |
| 2026-05-05 23:02 | 39.82310 | -86.13454 | 4908 ft | 254 kts | 50° |
| 2026-05-05 23:02 | 39.83456 | -86.11632 | 4903 ft | 261 kts | 50° |
| 2026-05-05 23:02 | 39.84451 | -86.09772 | 4890 ft | 243 kts | 61° |
| 2026-05-05 23:02 | 39.85703 | -86.08415 | 4890 ft | 233 kts | 18° |
| 2026-05-05 23:03 | 39.87259 | -86.08417 | 4890 ft | 221 kts | 340° |
| 2026-05-05 23:03 | 39.88632 | -86.09195 | 4889 ft | 211 kts | 320° |
| 2026-05-05 23:03 | 39.89779 | -86.10374 | 4723 ft | 215 kts | 315° |
| 2026-05-05 23:03 | 39.90987 | -86.11678 | 3950 ft | 235 kts | 318° |
| 2026-05-05 23:04 | 39.92221 | -86.13008 | 3289 ft | 207 kts | 319° |
| 2026-05-05 23:04 | 39.93117 | -86.14236 | 2928 ft | 178 kts | 313° |
| 2026-05-05 23:04 | 39.93861 | -86.15346 | 2899 ft | 150 kts | 316° |
| 2026-05-05 23:04 | 39.94500 | -86.16299 | 2876 ft | 133 kts | 314° |
| 2026-05-05 23:05 | 39.95111 | -86.17205 | 3126 ft | 140 kts | 313° |
| 2026-05-05 23:05 | 39.95851 | -86.18357 | 3382 ft | 192 kts | 300° |
| 2026-05-05 23:05 | 39.96383 | -86.20169 | 3575 ft | 227 kts | 282° |
| 2026-05-05 23:05 | 39.96240 | -86.21506 | 4957 ft | 180 kts | 263° |